Time;durP1;ratioP1;P1;durP2;ratioP2;P2;SDS_P1;SDS_P2;PMS_P1;PMS_P2;Temp;Humidity;BMP_temperature;BMP_pressure;BME280_temperature;BME280_humidity;BME280_pressure;Samples;Min_cycle;Max_cycle;Signal;HPM_P1;HPM_P2
2022/03/23 00:01:44;;;;;;;70.22;46.55;;;7.90;99.90;;;;;;5109054;28;20536;-79
2022/03/23 00:04:09;;;;;;;68.32;45.63;;;8.10;99.90;;;;;;5090360;28;20043;-79
2022/03/23 00:06:35;;;;;;;72.00;46.03;;;7.80;99.90;;;;;;5090659;28;20040;-79
2022/03/23 00:09:01;;;;;;;73.68;47.63;;;7.80;99.90;;;;;;5092717;28;20108;-77
2022/03/23 00:11:27;;;;;;;69.43;44.08;;;7.70;99.90;;;;;;5108298;28;20039;-78
2022/03/23 00:13:54;;;;;;;67.82;44.30;;;7.70;99.90;;;;;;5093326;28;20432;-78
2022/03/23 00:16:20;;;;;;;81.05;44.97;;;7.70;99.90;;;;;;5088705;28;20394;-77
2022/03/23 00:18:46;;;;;;;86.40;48.35;;;7.70;99.90;;;;;;5109753;28;20138;-80
2022/03/23 00:21:13;;;;;;;67.53;44.33;;;7.60;99.90;;;;;;5110993;27;20114;-79
2022/03/23 00:23:39;;;;;;;73.22;46.30;;;7.50;99.90;;;;;;5110143;28;20398;-80
2022/03/23 00:26:05;;;;;;;72.25;45.17;;;7.50;99.90;;;;;;5118339;27;20039;-78
2022/03/23 00:28:31;;;;;;;75.82;47.55;;;7.50;99.90;;;;;;5115061;27;20125;-79
2022/03/23 00:30:56;;;;;;;73.05;46.25;;;7.50;99.90;;;;;;5119268;27;20035;-79
2022/03/23 00:33:22;;;;;;;69.32;44.70;;;7.50;99.90;;;;;;5097819;27;20340;-80
2022/03/23 00:35:49;;;;;;;72.80;46.72;;;7.50;99.90;;;;;;5096074;28;20100;-78
2022/03/23 00:38:16;;;;;;;79.63;48.47;;;7.80;99.90;;;;;;5111418;27;20416;-79
2022/03/23 00:40:44;;;;;;;74.75;46.17;;;7.50;99.90;;;;;;5094665;28;20070;-77
2022/03/23 00:43:10;;;;;;;74.03;46.15;;;7.50;99.90;;;;;;5095391;27;20131;-80
2022/03/23 00:45:37;;;;;;;78.90;49.15;;;7.40;99.90;;;;;;5119106;27;20059;-80
2022/03/23 00:48:04;;;;;;;73.32;45.67;;;7.50;99.90;;;;;;5092742;28;20047;-77
2022/03/23 00:50:30;;;;;;;73.70;46.28;;;7.50;99.90;;;;;;5119769;27;20070;-78
2022/03/23 00:52:55;;;;;;;73.10;46.63;;;7.50;99.90;;;;;;5116033;27;20048;-76
2022/03/23 00:55:21;;;;;;;77.60;46.60;;;7.50;99.90;;;;;;5112985;27;20100;-79
2022/03/23 00:57:48;;;;;;;71.05;46.35;;;7.50;99.90;;;;;;5095257;28;20454;-80
2022/03/23 01:00:16;;;;;;;76.63;47.13;;;7.40;99.90;;;;;;5112720;27;20035;-78
2022/03/23 01:02:43;;;;;;;76.63;46.72;;;7.40;99.90;;;;;;5088754;28;20138;-78
2022/03/23 01:05:11;;;;;;;69.55;45.67;;;7.40;99.90;;;;;;5091945;28;20119;-78
2022/03/23 01:07:38;;;;;;;67.53;44.40;;;7.30;99.90;;;;;;5105293;28;20039;-79
2022/03/23 01:10:05;;;;;;;70.07;45.22;;;7.30;99.90;;;;;;5094400;27;20058;-81
2022/03/23 01:12:31;;;;;;;79.78;46.40;;;7.20;99.90;;;;;;5110128;27;20174;-80
2022/03/23 01:14:57;;;;;;;79.82;46.53;;;7.20;99.90;;;;;;5112274;27;20205;-78
2022/03/23 01:17:23;;;;;;;74.53;47.58;;;7.10;99.90;;;;;;5107832;27;20509;-79
2022/03/23 01:19:49;;;;;;;82.32;49.03;;;7.00;99.90;;;;;;5112299;27;20387;-77
2022/03/23 01:22:16;;;;;;;91.35;50.83;;;7.10;99.90;;;;;;5093553;28;20047;-80
2022/03/23 01:24:42;;;;;;;71.70;46.30;;;7.20;99.90;;;;;;5127190;27;20043;-81
2022/03/23 01:27:08;;;;;;;70.70;45.17;;;7.20;99.90;;;;;;5111423;27;20134;-77
2022/03/23 01:29:34;;;;;;;73.30;44.72;;;7.10;99.90;;;;;;5095068;27;20044;-79
2022/03/23 01:32:00;;;;;;;92.88;48.50;;;6.90;99.90;;;;;;5110920;27;20062;-79
2022/03/23 01:34:26;;;;;;;89.97;49.38;;;6.80;99.90;;;;;;5124895;27;20375;-79
2022/03/23 01:36:52;;;;;;;85.90;48.00;;;7.00;99.90;;;;;;5093324;27;20479;-78
2022/03/23 01:39:17;;;;;;;81.18;46.70;;;7.00;99.90;;;;;;5117978;27;20111;-78
2022/03/23 01:41:43;;;;;;;74.15;45.70;;;6.90;99.90;;;;;;5093859;27;20039;-78
2022/03/23 01:44:23;;;;;;;79.32;47.50;;;6.90;99.90;;;;;;5115837;27;20038;-77
2022/03/23 01:46:59;;;;;;;83.55;47.15;;;6.90;99.90;;;;;;5105787;27;20039;-77
2022/03/23 01:49:25;;;;;;;80.15;45.60;;;6.90;99.90;;;;;;5109435;27;20050;-81
2022/03/23 01:51:51;;;;;;;80.93;45.60;;;6.80;99.90;;;;;;5113485;27;20036;-80
2022/03/23 01:54:17;;;;;;;70.80;43.65;;;6.90;99.90;;;;;;5109315;27;20371;-81
2022/03/23 01:56:43;;;;;;;72.53;43.08;;;6.90;99.90;;;;;;5119169;27;20043;-80
2022/03/23 01:59:10;;;;;;;75.28;45.92;;;7.00;99.90;;;;;;5080407;27;20631;-77
2022/03/23 02:01:40;;;;;;;68.03;43.20;;;6.70;99.90;;;;;;5114330;27;20048;-79
2022/03/23 02:04:06;;;;;;;67.05;41.03;;;6.60;99.90;;;;;;5108183;27;20044;-77
2022/03/23 02:06:31;;;;;;;66.60;41.75;;;6.50;99.90;;;;;;5094765;28;20661;-77
2022/03/23 02:08:58;;;;;;;68.50;40.90;;;6.50;99.90;;;;;;5101790;28;20050;-78
2022/03/23 02:11:24;;;;;;;69.30;41.85;;;6.40;99.90;;;;;;5108879;27;20352;-78
2022/03/23 02:13:53;;;;;;;72.90;43.72;;;6.30;99.90;;;;;;5116572;27;20039;-78
2022/03/23 02:16:19;;;;;;;66.03;42.30;;;6.20;99.90;;;;;;5109385;27;20042;-79
2022/03/23 02:18:45;;;;;;;77.32;44.20;;;6.20;99.90;;;;;;5092770;27;20127;-77
2022/03/23 02:21:14;;;;;;;70.78;42.63;;;6.20;99.90;;;;;;5114289;27;20427;-78
2022/03/23 02:23:40;;;;;;;67.53;41.20;;;6.20;99.90;;;;;;5108602;28;20039;-77
2022/03/23 02:26:06;;;;;;;78.57;45.40;;;6.10;99.90;;;;;;5111620;27;20035;-78
2022/03/23 02:28:32;;;;;;;73.97;44.85;;;6.10;99.90;;;;;;5104085;28;20036;-77
2022/03/23 02:30:58;;;;;;;70.65;43.40;;;6.10;99.90;;;;;;5097310;28;20372;-79
2022/03/23 02:33:24;;;;;;;75.13;45.33;;;6.20;99.90;;;;;;5100918;28;20058;-77
2022/03/23 02:35:50;;;;;;;65.00;41.65;;;6.00;99.90;;;;;;5101324;28;20044;-79
2022/03/23 02:38:17;;;;;;;69.95;40.83;;;6.10;99.90;;;;;;5097361;28;20039;-79
2022/03/23 02:40:46;;;;;;;71.57;44.88;;;6.00;99.90;;;;;;5105995;28;20051;-81
2022/03/23 02:43:30;;;;;;;67.97;40.10;;;6.00;99.90;;;;;;5111406;27;20094;-79
2022/03/23 02:45:56;;;;;;;66.55;42.20;;;6.00;99.90;;;;;;5089224;28;20078;-77
2022/03/23 02:48:21;;;;;;;75.07;45.63;;;6.20;99.90;;;;;;5087721;28;20082;-80
2022/03/23 02:50:47;;;;;;;66.95;39.50;;;5.90;99.90;;;;;;5110483;28;20545;-78
2022/03/23 03:01:53;;;;;;;61.20;37.53;;;5.80;99.90;;;;;;5101339;28;20075;-81
2022/03/23 03:04:20;;;;;;;68.65;40.40;;;5.60;99.90;;;;;;5102904;28;20126;-78
2022/03/23 03:06:46;;;;;;;60.13;38.38;;;5.60;99.90;;;;;;5106429;28;20083;-76
2022/03/23 03:09:12;;;;;;;60.35;38.40;;;5.60;99.90;;;;;;5110270;28;20118;-78
2022/03/23 03:11:38;;;;;;;59.88;38.75;;;5.60;99.90;;;;;;5112107;28;20035;-78
2022/03/23 03:14:04;;;;;;;67.00;40.42;;;5.50;99.90;;;;;;5096153;28;20070;-77
2022/03/23 03:16:30;;;;;;;62.13;40.88;;;5.50;99.90;;;;;;5106128;28;20336;-80
2022/03/23 03:18:56;;;;;;;60.72;37.92;;;5.50;99.90;;;;;;5127390;27;20066;-77
2022/03/23 03:21:22;;;;;;;63.50;41.35;;;5.30;99.90;;;;;;5128494;28;20461;-79
2022/03/23 03:23:48;;;;;;;59.13;39.15;;;5.40;99.90;;;;;;5112561;27;20028;-79
2022/03/23 03:26:15;;;;;;;57.88;38.05;;;5.40;99.90;;;;;;5092924;28;20118;-80
2022/03/23 03:28:42;;;;;;;66.13;40.70;;;5.50;99.90;;;;;;5092769;27;20142;-80
2022/03/23 03:31:10;;;;;;;71.50;42.90;;;5.60;99.90;;;;;;5091613;28;20031;-77
2022/03/23 03:33:37;;;;;;;59.72;38.20;;;5.40;99.90;;;;;;5109393;27;20035;-79
2022/03/23 03:36:03;;;;;;;68.32;41.75;;;5.40;99.90;;;;;;5114120;28;20039;-77
2022/03/23 03:38:30;;;;;;;60.42;38.33;;;5.30;99.90;;;;;;5104351;27;20043;-79
2022/03/23 03:40:56;;;;;;;70.90;43.75;;;5.30;99.90;;;;;;5124217;28;20038;-79
2022/03/23 03:43:24;;;;;;;69.57;41.88;;;5.50;99.90;;;;;;5112820;27;20546;-77
2022/03/23 03:45:50;;;;;;;59.70;38.15;;;5.30;99.90;;;;;;5113800;28;20462;-77
2022/03/23 03:48:17;;;;;;;57.63;38.55;;;5.30;99.90;;;;;;5119564;27;20044;-79
2022/03/23 03:50:43;;;;;;;67.88;41.72;;;5.20;99.90;;;;;;5115914;28;20035;-79
2022/03/23 03:53:09;;;;;;;58.55;39.13;;;5.10;99.90;;;;;;5116705;27;20039;-79
2022/03/23 03:55:39;;;;;;;65.13;39.30;;;5.10;99.90;;;;;;5113628;28;20088;-77
2022/03/23 03:58:08;;;;;;;55.67;35.78;;;5.20;99.90;;;;;;5132431;27;20497;-80
2022/03/23 04:00:35;;;;;;;67.78;42.75;;;5.20;99.90;;;;;;5122024;27;20163;-78
2022/03/23 04:03:02;;;;;;;76.80;46.10;;;5.20;99.90;;;;;;5102440;27;20126;-80
2022/03/23 04:05:28;;;;;;;84.88;47.72;;;5.20;99.90;;;;;;5121188;27;20043;-77
2022/03/23 04:07:55;;;;;;;74.18;45.55;;;5.10;99.90;;;;;;5134510;27;20109;-77
2022/03/23 04:10:22;;;;;;;57.85;37.92;;;5.30;99.90;;;;;;5131640;27;20041;-77
2022/03/23 04:12:47;;;;;;;61.28;39.97;;;5.20;99.90;;;;;;5101073;27;20489;-79
2022/03/23 04:15:14;;;;;;;60.55;38.55;;;5.20;99.90;;;;;;5120087;27;20141;-77
2022/03/23 04:17:41;;;;;;;58.45;38.25;;;5.20;99.90;;;;;;5116497;27;20055;-78
2022/03/23 04:20:08;;;;;;;61.25;39.50;;;5.00;99.90;;;;;;5119457;27;20038;-79
2022/03/23 04:22:34;;;;;;;63.25;39.40;;;5.00;99.90;;;;;;5083294;27;20055;-77
2022/03/23 04:25:00;;;;;;;68.05;41.63;;;5.00;99.90;;;;;;5106417;27;20034;-80
2022/03/23 04:27:25;;;;;;;61.03;37.97;;;4.90;99.90;;;;;;5135667;27;20426;-80
2022/03/23 04:29:51;;;;;;;58.97;37.85;;;5.30;99.90;;;;;;5133329;27;20039;-78
2022/03/23 04:32:17;;;;;;;60.33;38.95;;;5.00;99.90;;;;;;5124001;27;20042;-77
2022/03/23 04:34:43;;;;;;;59.47;39.72;;;4.90;99.90;;;;;;5095735;27;20131;-80
2022/03/23 04:37:08;;;;;;;62.58;40.13;;;4.90;99.90;;;;;;5132245;27;20035;-79
2022/03/23 04:39:34;;;;;;;58.65;39.72;;;4.80;99.90;;;;;;5125314;27;20081;-77
2022/03/23 04:42:00;;;;;;;76.88;42.13;;;4.70;99.90;;;;;;5108922;27;20122;-80
2022/03/23 04:44:25;;;;;;;58.05;37.95;;;4.80;99.90;;;;;;5119586;27;20035;-80
2022/03/23 04:46:51;;;;;;;61.13;38.78;;;4.80;99.90;;;;;;5121884;27;20041;-80
2022/03/23 04:49:17;;;;;;;61.08;38.38;;;4.80;99.90;;;;;;5119045;27;20118;-77
2022/03/23 04:51:42;;;;;;;59.67;37.83;;;4.70;99.90;;;;;;5133778;27;22128;-78
2022/03/23 04:54:08;;;;;;;65.88;40.83;;;4.80;99.90;;;;;;5130210;27;20371;-79
2022/03/23 04:56:34;;;;;;;63.20;37.90;;;4.60;99.90;;;;;;5104617;27;20486;-80
2022/03/23 04:59:01;;;;;;;58.33;36.80;;;4.60;99.90;;;;;;5136643;27;20031;-79
2022/03/23 05:01:27;;;;;;;63.65;37.72;;;4.60;99.90;;;;;;5132766;27;20115;-78
2022/03/23 05:03:52;;;;;;;58.95;36.72;;;4.60;99.90;;;;;;5117075;27;20486;-78
2022/03/23 05:06:19;;;;;;;60.35;36.53;;;4.60;99.90;;;;;;5123338;27;20115;-78
2022/03/23 05:08:45;;;;;;;54.75;35.28;;;4.50;99.90;;;;;;5102609;27;20060;-79
2022/03/23 05:11:11;;;;;;;52.00;34.55;;;4.60;99.90;;;;;;5130280;27;20042;-78
2022/03/23 05:13:37;;;;;;;57.35;36.42;;;5.10;99.90;;;;;;5116789;27;20039;-78
2022/03/23 05:16:03;;;;;;;62.25;35.85;;;5.10;99.90;;;;;;5098312;27;20070;-79
2022/03/23 05:18:29;;;;;;;69.38;41.38;;;4.40;99.90;;;;;;5101360;27;20063;-77
2022/03/23 05:20:55;;;;;;;57.75;35.03;;;4.40;99.90;;;;;;5100151;27;20051;-77
2022/03/23 05:23:21;;;;;;;62.67;37.45;;;4.40;99.90;;;;;;5096921;27;20338;-77
2022/03/23 05:25:46;;;;;;;65.30;41.50;;;4.40;99.90;;;;;;5105205;27;20031;-80
2022/03/23 05:28:13;;;;;;;59.55;36.83;;;4.40;99.90;;;;;;5098881;27;20043;-79
2022/03/23 05:30:39;;;;;;;61.22;36.58;;;4.40;99.90;;;;;;5140203;27;20573;-80
2022/03/23 05:33:05;;;;;;;57.90;36.45;;;4.40;99.90;;;;;;5096878;27;20117;-78
2022/03/23 05:35:32;;;;;;;68.15;37.75;;;4.40;99.90;;;;;;5105107;27;20043;-79
2022/03/23 05:37:58;;;;;;;71.32;42.25;;;4.40;99.90;;;;;;5124232;27;20035;-79
2022/03/23 05:40:24;;;;;;;86.63;47.55;;;4.40;99.90;;;;;;5143924;27;20034;-78
2022/03/23 05:42:59;;;;;;;74.57;43.88;;;4.60;99.90;;;;;;5116113;27;20534;-80
2022/03/23 05:45:25;;;;;;;73.07;40.28;;;4.50;99.90;;;;;;5117394;27;20050;-78
2022/03/23 05:47:53;;;;;;;64.30;39.33;;;4.60;99.90;;;;;;5115117;27;20035;-80
2022/03/23 05:50:20;;;;;;;72.53;44.05;;;4.80;99.90;;;;;;5111196;27;20035;-79
2022/03/23 05:52:45;;;;;;;50.20;31.73;;;4.50;99.90;;;;;;5130856;27;20035;-78
2022/03/23 05:55:11;;;;;;;65.57;38.80;;;4.70;99.90;;;;;;5109177;27;20152;-80
2022/03/23 05:57:37;;;;;;;68.90;38.25;;;4.60;99.90;;;;;;5118398;27;20486;-79
2022/03/23 06:00:05;;;;;;;73.22;38.65;;;4.70;99.90;;;;;;5119088;27;20080;-79
2022/03/23 06:02:31;;;;;;;81.05;40.22;;;4.70;99.90;;;;;;5100007;27;20038;-80
2022/03/23 06:04:57;;;;;;;72.50;39.85;;;4.60;99.90;;;;;;5128472;27;20346;-80
2022/03/23 06:07:22;;;;;;;84.43;41.97;;;4.70;99.90;;;;;;5097570;27;20038;-78
2022/03/23 06:09:48;;;;;;;81.90;47.28;;;4.60;99.90;;;;;;5112163;27;20039;-80
2022/03/23 06:12:14;;;;;;;73.65;43.47;;;4.70;99.90;;;;;;5098046;27;20152;-81
2022/03/23 06:14:44;;;;;;;80.00;44.40;;;5.40;99.90;;;;;;5112775;27;20501;-77
2022/03/23 06:17:13;;;;;;;77.57;45.15;;;4.80;99.90;;;;;;5112487;27;20088;-77
2022/03/23 06:19:39;;;;;;;87.05;49.75;;;4.90;99.90;;;;;;5091145;27;20401;-81
2022/03/23 06:22:05;;;;;;;82.35;48.72;;;5.00;99.90;;;;;;5113274;27;20069;-81
2022/03/23 06:24:31;;;;;;;84.45;47.05;;;5.00;99.90;;;;;;5112901;27;20460;-80
2022/03/23 06:26:57;;;;;;;82.18;49.38;;;5.40;99.90;;;;;;5109216;27;20023;-82
2022/03/23 06:29:22;;;;;;;71.45;43.40;;;5.10;99.90;;;;;;5110610;27;20047;-79
2022/03/23 06:31:48;;;;;;;71.43;42.85;;;5.30;99.90;;;;;;5094311;27;20070;-81
2022/03/23 06:34:14;;;;;;;98.28;54.47;;;5.30;99.90;;;;;;5092490;27;20078;-82
2022/03/23 06:36:41;;;;;;;78.28;45.63;;;5.40;99.90;;;;;;5109899;27;20059;-80
2022/03/23 06:39:07;;;;;;;96.32;51.50;;;5.50;99.90;;;;;;5092354;28;20073;-79
2022/03/23 06:41:33;;;;;;;96.57;56.55;;;5.50;99.90;;;;;;5108814;27;20058;-83
2022/03/23 06:43:59;;;;;;;91.07;52.88;;;5.80;99.90;;;;;;5097807;27;20035;-81
2022/03/23 06:46:25;;;;;;;106.53;59.80;;;5.80;99.90;;;;;;5094030;28;20062;-82
2022/03/23 06:48:51;;;;;;;107.25;58.28;;;5.80;99.90;;;;;;5101401;27;20039;-78
2022/03/23 06:51:17;;;;;;;109.72;59.47;;;5.90;99.90;;;;;;5094015;28;20048;-78
2022/03/23 06:53:43;;;;;;;94.93;56.53;;;6.10;99.90;;;;;;5116570;28;21573;-79
2022/03/23 06:56:09;;;;;;;101.50;58.38;;;6.10;99.90;;;;;;5127064;28;20047;-78
2022/03/23 06:58:35;;;;;;;104.60;57.88;;;6.30;99.90;;;;;;5114784;28;20050;-80
2022/03/23 07:01:01;;;;;;;102.68;57.92;;;6.40;99.90;;;;;;5112218;27;20047;-78
2022/03/23 07:03:27;;;;;;;92.70;55.40;;;6.50;99.90;;;;;;5097335;28;20111;-79
2022/03/23 07:05:53;;;;;;;97.10;56.47;;;6.50;99.90;;;;;;5079498;28;20051;-78
2022/03/23 07:11:05;;;;;;;103.70;57.05;;;6.70;99.90;;;;;;5129658;27;20043;-80
2022/03/23 07:13:31;;;;;;;104.95;59.38;;;6.90;99.90;;;;;;5110701;27;20050;-81
2022/03/23 07:15:57;;;;;;;97.38;57.80;;;6.90;99.90;;;;;;5090391;27;20046;-81
2022/03/23 07:18:23;;;;;;;97.80;56.38;;;7.00;99.90;;;;;;5128029;27;20498;-76
2022/03/23 07:20:48;;;;;;;96.72;56.15;;;7.10;99.90;;;;;;5107638;28;20059;-79
2022/03/23 07:23:14;;;;;;;100.28;55.83;;;7.10;99.90;;;;;;5110787;28;20050;-81
2022/03/23 07:25:40;;;;;;;95.13;55.42;;;7.20;99.90;;;;;;5114659;28;20027;-80
2022/03/23 07:28:06;;;;;;;90.30;55.03;;;7.40;99.90;;;;;;5092810;27;20465;-79
2022/03/23 07:30:37;;;;;;;90.10;55.42;;;7.50;99.90;;;;;;5116600;27;20130;-80
2022/03/23 07:33:03;;;;;;;99.65;53.75;;;7.70;99.90;;;;;;5095560;27;20059;-83
2022/03/23 07:35:29;;;;;;;83.65;48.83;;;7.80;99.90;;;;;;5113736;27;20089;-80
2022/03/23 07:37:56;;;;;;;81.93;44.97;;;7.90;99.90;;;;;;5116384;27;20055;-79
2022/03/23 07:40:21;;;;;;;79.20;45.67;;;8.00;99.90;;;;;;5113567;27;20054;-75
2022/03/23 07:42:47;;;;;;;75.05;43.65;;;8.20;99.90;;;;;;5098507;27;20457;-76
2022/03/23 07:45:14;;;;;;;79.97;42.72;;;8.30;99.90;;;;;;5117503;27;20038;-81
2022/03/23 07:47:40;;;;;;;63.75;39.35;;;8.40;99.90;;;;;;5094954;27;20397;-76
2022/03/23 07:50:07;;;;;;;69.75;39.00;;;8.70;99.90;;;;;;5115794;27;20031;-77
2022/03/23 07:52:33;;;;;;;71.88;41.58;;;8.70;99.90;;;;;;5095088;27;20130;-80
2022/03/23 07:55:00;;;;;;;63.10;39.88;;;8.80;99.90;;;;;;5096851;27;20047;-76
2022/03/23 07:57:26;;;;;;;68.55;41.72;;;8.90;99.90;;;;;;5109078;27;20451;-81
2022/03/23 07:59:54;;;;;;;71.07;38.55;;;9.00;99.90;;;;;;5113799;27;20141;-82
2022/03/23 08:02:19;;;;;;;71.80;38.17;;;9.10;99.90;;;;;;5096851;27;20047;-79
2022/03/23 08:04:45;;;;;;;61.58;36.50;;;9.10;99.90;;;;;;5097756;27;20046;-80
2022/03/23 08:07:11;;;;;;;54.13;33.88;;;9.30;99.90;;;;;;5114541;27;20054;-79
2022/03/23 08:09:37;;;;;;;55.22;34.28;;;9.50;99.90;;;;;;5115124;27;20051;-79
2022/03/23 08:12:02;;;;;;;59.47;34.75;;;9.60;99.90;;;;;;5115242;27;20043;-80
2022/03/23 08:14:28;;;;;;;54.90;35.22;;;9.70;99.90;;;;;;5114426;27;20063;-78
2022/03/23 08:16:54;;;;;;;51.15;33.58;;;9.70;99.90;;;;;;5097503;27;20107;-79
2022/03/23 08:19:22;;;;;;;48.90;31.45;;;9.90;99.90;;;;;;5114381;27;20070;-79
2022/03/23 08:21:48;;;;;;;52.55;31.65;;;10.10;99.90;;;;;;5098166;27;20039;-75
2022/03/23 08:24:14;;;;;;;55.85;33.63;;;10.20;99.90;;;;;;5097495;27;20051;-80
2022/03/23 08:26:40;;;;;;;49.75;34.10;;;10.30;99.90;;;;;;5115358;27;20526;-81
2022/03/23 08:29:06;;;;;;;49.03;32.00;;;10.50;99.90;;;;;;5097442;27;20381;-77
2022/03/23 08:31:31;;;;;;;45.83;29.65;;;10.40;99.90;;;;;;5114046;27;20042;-78
2022/03/23 08:33:57;;;;;;;46.17;29.20;;;10.60;99.90;;;;;;5133114;27;20050;-78
2022/03/23 08:36:23;;;;;;;47.85;29.00;;;10.70;99.90;;;;;;5114552;27;20050;-83
2022/03/23 08:38:49;;;;;;;48.35;30.35;;;10.80;99.90;;;;;;5099380;27;20059;-77
2022/03/23 08:41:14;;;;;;;50.80;29.25;;;10.90;99.90;;;;;;5092560;27;20049;-80
2022/03/23 08:43:41;;;;;;;49.70;29.95;;;10.90;99.90;;;;;;5113902;27;20043;-76
2022/03/23 08:46:08;;;;;;;49.35;29.05;;;11.00;99.90;;;;;;5112815;27;20108;-77
2022/03/23 08:48:34;;;;;;;45.95;28.15;;;11.20;99.90;;;;;;5097204;27;20043;-76
2022/03/23 08:51:00;;;;;;;42.05;28.02;;;11.30;99.90;;;;;;5096708;27;20047;-75
2022/03/23 08:53:26;;;;;;;44.13;27.60;;;11.40;99.90;;;;;;5112951;27;20057;-75
2022/03/23 08:55:53;;;;;;;40.92;28.05;;;11.50;99.90;;;;;;5116250;27;20373;-79
2022/03/23 08:58:19;;;;;;;43.67;27.60;;;11.60;99.90;;;;;;5111940;27;20504;-77
2022/03/23 09:00:44;;;;;;;46.42;27.95;;;11.70;99.90;;;;;;5113581;27;20069;-80
2022/03/23 09:03:10;;;;;;;45.92;27.83;;;11.80;99.90;;;;;;5094614;27;20055;-79
2022/03/23 09:05:36;;;;;;;47.83;28.70;;;11.90;99.90;;;;;;5097103;27;20055;-76
2022/03/23 09:08:02;;;;;;;45.47;28.00;;;12.00;99.90;;;;;;5110989;27;20046;-78
2022/03/23 09:10:28;;;;;;;42.90;27.27;;;12.00;99.90;;;;;;5112665;27;20040;-79
2022/03/23 09:12:54;;;;;;;44.17;28.55;;;12.10;99.90;;;;;;5110602;27;20486;-76
2022/03/23 09:15:20;;;;;;;44.42;27.48;;;12.10;99.90;;;;;;5110767;27;20058;-77
2022/03/23 09:17:46;;;;;;;45.63;28.67;;;12.20;99.90;;;;;;5108032;27;20085;-77
2022/03/23 09:20:13;;;;;;;42.92;28.65;;;12.30;99.90;;;;;;5097293;27;20059;-77
2022/03/23 09:22:40;;;;;;;34.13;22.17;;;12.40;99.90;;;;;;5111830;27;20047;-78
2022/03/23 09:25:09;;;;;;;39.20;26.35;;;12.50;99.90;;;;;;5095601;27;20031;-77
2022/03/23 09:27:37;;;;;;;37.95;26.15;;;12.60;99.90;;;;;;5095708;27;20134;-79
2022/03/23 09:30:07;;;;;;;39.38;25.55;;;12.80;99.90;;;;;;5131486;27;20054;-77
2022/03/23 09:32:32;;;;;;;36.90;25.48;;;12.90;99.90;;;;;;5129152;27;20104;-76
2022/03/23 09:34:58;;;;;;;40.10;24.42;;;13.00;99.90;;;;;;5105137;27;20538;-75
2022/03/23 09:40:09;;;;;;;41.22;22.77;;;13.20;99.90;;;;;;5111813;27;20095;-74
2022/03/23 09:42:35;;;;;;;32.70;22.08;;;13.30;99.90;;;;;;5094679;27;20055;-74
2022/03/23 09:45:02;;;;;;;33.03;22.52;;;13.40;99.90;;;;;;5112701;27;20073;-76
2022/03/23 09:47:30;;;;;;;29.55;22.23;;;13.60;98.70;;;;;;5108766;27;20031;-79
2022/03/23 09:49:56;;;;;;;31.40;20.88;;;13.60;98.40;;;;;;5108335;27;20149;-80
2022/03/23 09:52:21;;;;;;;31.92;21.27;;;13.80;98.70;;;;;;5113153;27;20517;-77
2022/03/23 09:54:47;;;;;;;29.17;20.75;;;13.90;98.30;;;;;;5114901;27;20038;-79
2022/03/23 09:57:13;;;;;;;31.58;20.30;;;14.10;98.30;;;;;;5111037;27;20134;-79
2022/03/23 09:59:40;;;;;;;32.00;20.13;;;14.30;96.00;;;;;;5109571;27;20467;-78
2022/03/23 10:02:06;;;;;;;29.67;20.10;;;14.40;95.50;;;;;;5111758;27;20043;-79
2022/03/23 10:04:34;;;;;;;30.35;20.10;;;14.50;94.60;;;;;;5096680;27;20192;-77
2022/03/23 10:07:03;;;;;;;27.17;19.02;;;14.50;95.20;;;;;;5096260;27;20035;-81
2022/03/23 10:10:05;;;;;;;27.67;18.52;;;14.60;95.00;;;;;;5096045;27;20055;-77
2022/03/23 10:13:08;;;;;;;32.15;20.10;;;14.80;90.00;;;;;;5095048;27;20065;-79
2022/03/23 10:16:02;;;;;;;32.95;20.63;;;14.80;94.80;;;;;;5092124;27;20044;-78
2022/03/23 10:18:59;;;;;;;27.02;19.52;;;14.90;96.00;;;;;;5108246;27;20532;-77
2022/03/23 10:21:33;;;;;;;40.33;19.80;;;15.10;95.80;;;;;;5111333;27;20122;-80
2022/03/23 10:24:02;;;;;;;27.95;20.02;;;15.30;94.70;;;;;;5111773;27;20047;-79
2022/03/23 10:26:29;;;;;;;29.67;19.85;;;15.60;94.80;;;;;;5094742;27;20074;-80
2022/03/23 10:28:56;;;;;;;26.60;19.00;;;15.70;96.70;;;;;;5113303;27;20104;-78
2022/03/23 10:31:25;;;;;;;27.63;19.58;;;15.90;95.30;;;;;;5113075;27;20120;-79
2022/03/23 10:34:07;;;;;;;29.92;18.67;;;16.10;94.80;;;;;;5110292;27;20051;-79
2022/03/23 10:36:33;;;;;;;26.85;19.02;;;16.30;86.90;;;;;;5112615;27;20394;-74
2022/03/23 10:39:16;;;;;;;21.08;12.80;;;16.50;90.80;;;;;;5097194;27;20031;-72
2022/03/23 10:41:43;;;;;;;19.45;13.93;;;17.00;94.10;;;;;;5107904;27;20100;-76
2022/03/23 10:44:19;;;;;;;24.23;17.92;;;17.20;97.40;;;;;;5094695;27;20046;-76
2022/03/23 10:46:46;;;;;;;26.80;15.45;;;17.50;91.90;;;;;;5105297;28;20465;-79
2022/03/23 10:49:15;;;;;;;30.58;19.88;;;17.70;95.30;;;;;;5108603;27;20112;-77
2022/03/23 10:51:42;;;;;;;33.92;19.40;;;17.70;90.90;;;;;;5087652;28;20126;-76
2022/03/23 10:54:20;;;;;;;28.23;19.08;;;17.70;90.20;;;;;;5105717;28;20079;-79
2022/03/23 10:56:49;;;;;;;29.92;21.02;;;17.90;92.30;;;;;;5125749;28;20081;-78
2022/03/23 10:59:22;;;;;;;28.48;18.75;;;17.90;91.80;;;;;;5097454;27;20035;-78
2022/03/23 11:02:05;;;;;;;34.33;18.23;;;17.90;88.20;;;;;;5102796;28;20471;-78
2022/03/23 11:04:52;;;;;;;26.83;17.17;;;18.10;85.30;;;;;;5096348;27;20062;-79
2022/03/23 11:07:35;;;;;;;33.13;17.77;;;18.20;89.20;;;;;;5112246;28;20054;-79
2022/03/23 11:16:09;;;;;;;26.63;13.23;;;18.50;77.40;;;;;;5036772;28;20041;-79
2022/03/23 11:18:28;;;;;;;20.38;14.07;;;18.70;73.70;;;;;;5015745;28;20163;-79
2022/03/23 11:20:57;;;;;;;25.63;13.38;;;18.90;69.40;;;;;;5035625;28;20053;-78
2022/03/23 11:23:24;;;;;;;23.52;12.07;;;18.80;69.40;;;;;;5017672;28;20049;-78
2022/03/23 11:25:52;;;;;;;23.15;11.90;;;18.90;68.50;;;;;;5016019;28;20045;-77
2022/03/23 11:28:19;;;;;;;24.17;11.77;;;19.00;67.30;;;;;;5034960;28;20052;-80
2022/03/23 11:30:46;;;;;;;26.83;11.27;;;19.20;64.40;;;;;;5031339;28;20072;-79
2022/03/23 11:33:15;;;;;;;34.10;11.10;;;19.30;66.00;;;;;;5019599;28;20514;-76
2022/03/23 11:35:47;;;;;;;20.92;10.75;;;19.30;66.90;;;;;;5034825;28;20048;-79
2022/03/23 11:38:14;;;;;;;25.35;10.57;;;19.40;63.40;;;;;;5018953;28;20157;-81
2022/03/23 11:40:44;;;;;;;21.08;11.20;;;19.80;68.60;;;;;;5034642;28;20041;-78
2022/03/23 11:43:15;;;;;;;23.67;11.45;;;19.80;66.80;;;;;;5022736;28;20049;-77
2022/03/23 11:45:44;;;;;;;26.17;12.52;;;19.80;69.20;;;;;;5018766;28;20154;-80
2022/03/23 11:48:41;;;;;;;33.47;10.45;;;20.20;73.20;;;;;;5037738;28;20091;-77
2022/03/23 11:51:21;;;;;;;25.08;10.40;;;20.50;70.90;;;;;;5116662;27;20162;-77
2022/03/23 11:54:08;;;;;;;32.20;12.60;;;20.50;68.60;;;;;;5095076;27;20055;-78
2022/03/23 11:56:47;;;;;;;21.73;12.20;;;20.50;64.90;;;;;;5118411;27;20100;-79
2022/03/23 11:59:29;;;;;;;23.88;12.00;;;20.20;62.80;;;;;;5093723;27;20042;-76
2022/03/23 12:01:58;;;;;;;41.45;12.55;;;20.20;62.20;;;;;;5102365;27;20232;-75
2022/03/23 12:04:26;;;;;;;29.95;13.48;;;20.70;69.50;;;;;;5119266;27;20047;-78
2022/03/23 12:07:06;;;;;;;30.45;12.50;;;21.00;63.90;;;;;;5114009;27;20490;-82
2022/03/23 12:09:35;;;;;;;25.08;10.95;;;20.60;60.20;;;;;;5091434;27;20031;-74
2022/03/23 12:12:02;;;;;;;22.27;10.77;;;21.00;61.00;;;;;;5111632;27;20058;-77
2022/03/23 12:14:39;;;;;;;27.17;12.48;;;21.30;64.60;;;;;;5089440;27;20398;-79
2022/03/23 12:17:06;;;;;;;26.42;11.93;;;21.10;61.10;;;;;;5095725;27;20538;-77
2022/03/23 12:19:52;;;;;;;31.15;10.68;;;21.60;66.20;;;;;;5110708;27;20039;-77
2022/03/23 12:22:46;;;;;;;23.23;10.90;;;21.80;66.60;;;;;;5112745;28;20108;-80
2022/03/23 12:25:26;;;;;;;24.45;9.60;;;21.50;62.40;;;;;;5033291;28;20046;-83
2022/03/23 12:27:55;;;;;;;25.55;10.55;;;21.20;62.00;;;;;;5018726;28;20376;-75
2022/03/23 12:30:26;;;;;;;21.02;10.30;;;21.50;61.60;;;;;;5002503;28;20049;-79
2022/03/23 12:32:56;;;;;;;25.45;10.95;;;21.10;60.60;;;;;;5000383;28;20059;-77
2022/03/23 12:35:33;;;;;;;26.98;10.30;;;21.20;61.70;;;;;;5025750;28;20049;-82
2022/03/23 12:38:01;;;;;;;21.52;9.93;;;21.30;62.00;;;;;;5023512;28;20080;-77
2022/03/23 12:40:38;;;;;;;26.80;10.20;;;21.70;63.70;;;;;;5035918;28;20052;-77
2022/03/23 12:43:04;;;;;;;21.67;10.80;;;21.80;60.00;;;;;;5035586;28;20071;-77
2022/03/23 12:45:34;;;;;;;31.23;11.35;;;21.80;58.80;;;;;;5019438;28;20041;-80
2022/03/23 12:57:49;;;;;;;24.20;10.35;;;21.40;60.20;;;;;;5016153;28;20052;-76
2022/03/23 12:59:20;;;;;;;30.02;8.52;;;22.30;60.30;;;;;;5031631;28;20097;-76
2022/03/23 13:01:53;;;;;;;25.73;8.63;;;22.30;60.70;;;;;;5039605;27;20062;-82
2022/03/23 13:04:45;;;;;;;20.75;6.60;;;22.70;62.70;;;;;;5112087;27;20066;-81
2022/03/23 13:07:28;;;;;;;24.08;7.18;;;22.50;57.30;;;;;;5138396;27;20477;-84